Temp: 17.1°C   Baro: 1023.4mb
  Wind: 4.9mph   Dir: NW (313°)
  Rain: 7.0mm (0.0mm/hr)
  Solar: 121W/m2  Hum: 67%

Historic data

Bath Spa Weather Station Historical Data
Daily Summary for August 03, 2022 Units:  Both    English   Metric
Daily Weekly Monthly Yearly Custom
  High: Low: Average:
Temperature: 73.7 °F /  23.2 °C 61.2 °F /  16.2 °C 67.2 °F /  19.6 °C
Dew Point: 65.6 °F /  18.7 °C 55.6 °F /  13.1 °C 61.1 °F /  16.2 °C
Humidity: 90.8% 66% 81%
Wind Speed: 10.8mph /  17.4km/h - 5.6mph /  9km/h
Wind Gust: 18mph /  29km/h - -
Wind- - WSW
Pressure: 29.96 in /  1014.4 hPa 29.91 in /  1012.8 hPa -
Precipitation: 0.00 in /  0 mm    
Historical Graphs
 
 
Tabular Data for August 03, 2022
Time Temperature Dew Point Pressure Wind Wind Speed Wind Gust Humidity Rainfall Rate (Hourly) solar
00:09 66.7 °F /  19.3 °C 61.6 °F /  16.4 °C 29.94in /  1013.8hPa SW 5.9mph /  9.5km/h 12mph /  19.3km/h 84% 0.00in /  0mm 0 W/m2
00:13 66.6 °F /  19.2 °C 61.5 °F /  16.4 °C 29.94in /  1013.8hPa SW 5.8mph /  9.3km/h 14mph /  22.5km/h 84% 0.00in /  0mm 0 W/m2
00:24 66.6 °F /  19.2 °C 61.5 °F /  16.4 °C 29.93in /  1013.4hPa SW 10.6mph /  17.1km/h 15mph /  24.1km/h 84% 0.00in /  0mm 0 W/m2
00:29 66.6 °F /  19.2 °C 61.5 °F /  16.4 °C 29.94in /  1013.8hPa SW 5mph /  8km/h 15mph /  24.1km/h 84% 0.00in /  0mm 0 W/m2
00:34 66.6 °F /  19.2 °C 61.5 °F /  16.4 °C 29.94in /  1013.8hPa WSW 5.3mph /  8.5km/h 12mph /  19.3km/h 84% 0.00in /  0mm 0 W/m2
00:39 66.6 °F /  19.2 °C 61.6 °F /  16.4 °C 29.94in /  1013.8hPa SW 7.8mph /  12.6km/h 11mph /  17.7km/h 84% 0.00in /  0mm 0 W/m2
00:44 66.7 °F /  19.3 °C 61.7 °F /  16.5 °C 29.94in /  1013.8hPa WSW 6.4mph /  10.3km/h 11mph /  17.7km/h 84% 0.00in /  0mm 0 W/m2
00:49 66.7 °F /  19.3 °C 61.9 °F /  16.6 °C 29.94in /  1013.8hPa SW 6.8mph /  10.9km/h 15mph /  24.1km/h 84.6% 0.00in /  0mm 0 W/m2
00:54 66.7 °F /  19.3 °C 62.1 °F /  16.7 °C 29.93in /  1013.4hPa SW 8.1mph /  13km/h 13mph /  20.9km/h 85% 0.00in /  0mm 0 W/m2
00:59 66.7 °F /  19.3 °C 61.8 °F /  16.6 °C 29.94in /  1013.8hPa SW 7.1mph /  11.4km/h 17mph /  27.4km/h 84.2% 0.00in /  0mm 0 W/m2
01:04 66.7 °F /  19.3 °C 61.7 °F /  16.5 °C 29.93in /  1013.4hPa SW 6.4mph /  10.3km/h 11mph /  17.7km/h 84% 0.00in /  0mm 0 W/m2
01:09 66.7 °F /  19.3 °C 61.7 °F /  16.5 °C 29.93in /  1013.4hPa WSW 6mph /  9.7km/h 18mph /  29km/h 84% 0.00in /  0mm 0 W/m2
01:14 66.7 °F /  19.3 °C 61.6 °F /  16.4 °C 29.93in /  1013.4hPa WSW 8.1mph /  13km/h 13mph /  20.9km/h 84% 0.00in /  0mm 0 W/m2
01:19 66.6 °F /  19.2 °C 61.5 °F /  16.4 °C 29.93in /  1013.4hPa SW 6.6mph /  10.6km/h 14mph /  22.5km/h 84% 0.00in /  0mm 0 W/m2
01:24 66.6 °F /  19.2 °C 61.5 °F /  16.4 °C 29.93in /  1013.4hPa SW 6.5mph /  10.5km/h 14mph /  22.5km/h 84% 0.00in /  0mm 0 W/m2
01:29 66.6 °F /  19.2 °C 61.8 °F /  16.6 °C 29.93in /  1013.4hPa SW 7.2mph /  11.6km/h 14mph /  22.5km/h 84.8% 0.00in /  0mm 0 W/m2
01:34 66.4 °F /  19.1 °C 61.7 °F /  16.5 °C 29.93in /  1013.4hPa WSW 5.2mph /  8.4km/h 12mph /  19.3km/h 85% 0.00in /  0mm 0 W/m2
01:39 66.3 °F /  19.1 °C 61.6 °F /  16.4 °C 29.93in /  1013.4hPa SW 5.8mph /  9.3km/h 11mph /  17.7km/h 85% 0.00in /  0mm 0 W/m2
01:44 66.1 °F /  18.9 °C 61.4 °F /  16.3 °C 29.93in /  1013.4hPa WSW 6.1mph /  9.8km/h 12mph /  19.3km/h 85% 0.00in /  0mm 0 W/m2
01:49 66 °F /  18.9 °C 61.3 °F /  16.3 °C 29.93in /  1013.4hPa SW 6.2mph /  10km/h 10mph /  16.1km/h 85% 0.00in /  0mm 0 W/m2
01:54 66 °F /  18.9 °C 61.3 °F /  16.3 °C 29.92in /  1013.1hPa SW 6.6mph /  10.6km/h 14mph /  22.5km/h 85% 0.00in /  0mm 0 W/m2
01:59 65.8 °F /  18.8 °C 61.2 °F /  16.2 °C 29.92in /  1013.1hPa SW 7.5mph /  12.1km/h 12mph /  19.3km/h 85% 0.00in /  0mm 0 W/m2
02:04 65.8 °F /  18.8 °C 61.5 °F /  16.4 °C 29.92in /  1013.1hPa SW 7.4mph /  11.9km/h 12mph /  19.3km/h 86% 0.00in /  0mm 0 W/m2
02:09 65.8 °F /  18.8 °C 61.5 °F /  16.4 °C 29.92in /  1013.1hPa SW 6mph /  9.7km/h 13mph /  20.9km/h 86% 0.00in /  0mm 0 W/m2
02:13 65.8 °F /  18.8 °C 61.4 °F /  16.3 °C 29.92in /  1013.1hPa SW 8.5mph /  13.7km/h 12mph /  19.3km/h 86% 0.00in /  0mm 0 W/m2
02:19 65.7 °F /  18.7 °C 61.3 °F /  16.3 °C 29.92in /  1013.1hPa SW 5.6mph /  9km/h 11mph /  17.7km/h 86% 0.00in /  0mm 0 W/m2
02:24 65.7 °F /  18.7 °C 61.3 °F /  16.3 °C 29.92in /  1013.1hPa SW 7.4mph /  11.9km/h 14mph /  22.5km/h 86% 0.00in /  0mm 0 W/m2
02:29 65.7 °F /  18.7 °C 61.3 °F /  16.3 °C 29.92in /  1013.1hPa SW 6.8mph /  10.9km/h 14mph /  22.5km/h 86% 0.00in /  0mm 0 W/m2
02:34 65.7 °F /  18.7 °C 61.3 °F /  16.3 °C 29.92in /  1013.1hPa SW 5.5mph /  8.9km/h 11mph /  17.7km/h 86% 0.00in /  0mm 0 W/m2
02:39 65.6 °F /  18.7 °C 61.3 °F /  16.3 °C 29.91in /  1012.8hPa WSW 6.4mph /  10.3km/h 12mph /  19.3km/h 86% 0.00in /  0mm 0 W/m2
02:44 65.5 °F /  18.6 °C 61.2 °F /  16.2 °C 29.91in /  1012.8hPa SW 3.5mph /  5.6km/h 10mph /  16.1km/h 86% 0.00in /  0mm 0 W/m2
02:49 65.6 °F /  18.7 °C 61.3 °F /  16.3 °C 29.91in /  1012.8hPa SW 4.8mph /  7.7km/h 10mph /  16.1km/h 86% 0.00in /  0mm 0 W/m2
02:54 65.5 °F /  18.6 °C 61.2 °F /  16.2 °C 29.91in /  1012.8hPa SW 5.2mph /  8.4km/h 10mph /  16.1km/h 86% 0.00in /  0mm 0 W/m2
02:59 65.5 °F /  18.6 °C 61.2 °F /  16.2 °C 29.91in /  1012.8hPa SW 7.7mph /  12.4km/h 11mph /  17.7km/h 86% 0.00in /  0mm 0 W/m2
03:04 65.5 °F /  18.6 °C 61.5 °F /  16.4 °C 29.91in /  1012.8hPa SW 6.2mph /  10km/h 12mph /  19.3km/h 87% 0.00in /  0mm 0 W/m2
03:09 65.5 °F /  18.6 °C 61.5 °F /  16.4 °C 29.91in /  1012.8hPa WSW 6.6mph /  10.6km/h 12mph /  19.3km/h 87% 0.00in /  0mm 0 W/m2
03:14 65.5 °F /  18.6 °C 61.5 °F /  16.4 °C 29.91in /  1012.8hPa SW 5mph /  8km/h 11mph /  17.7km/h 87% 0.00in /  0mm 0 W/m2
03:19 65.5 °F /  18.6 °C 61.5 °F /  16.4 °C 29.91in /  1012.8hPa SW 5mph /  8km/h 12mph /  19.3km/h 87% 0.00in /  0mm 0 W/m2
03:24 65.5 °F /  18.6 °C 61.5 °F /  16.4 °C 29.91in /  1012.8hPa SW 5.7mph /  9.2km/h 10mph /  16.1km/h 87% 0.00in /  0mm 0 W/m2
03:29 65.5 °F /  18.6 °C 61.5 °F /  16.4 °C 29.91in /  1012.8hPa SW 4.4mph /  7.1km/h 10mph /  16.1km/h 87% 0.00in /  0mm 0 W/m2
03:34 65.5 °F /  18.6 °C 61.5 °F /  16.4 °C 29.91in /  1012.8hPa SW 5.3mph /  8.5km/h 9mph /  14.5km/h 87% 0.00in /  0mm 0 W/m2
03:39 65.6 °F /  18.7 °C 61.6 °F /  16.4 °C 29.91in /  1012.8hPa SW 6.8mph /  10.9km/h 11mph /  17.7km/h 87% 0.00in /  0mm 0 W/m2
03:44 65.7 °F /  18.7 °C 61.7 °F /  16.5 °C 29.91in /  1012.8hPa SW 4.8mph /  7.7km/h 11mph /  17.7km/h 87% 0.00in /  0mm 0 W/m2
03:49 65.7 °F /  18.7 °C 61.7 °F /  16.5 °C 29.91in /  1012.8hPa SW 6.7mph /  10.8km/h 11mph /  17.7km/h 87% 0.00in /  0mm 0 W/m2
03:54 65.8 °F /  18.8 °C 61.8 °F /  16.6 °C 29.91in /  1012.8hPa SW 5.5mph /  8.9km/h 10mph /  16.1km/h 87% 0.00in /  0mm 0 W/m2
03:59 65.8 °F /  18.8 °C 61.9 °F /  16.6 °C 29.91in /  1012.8hPa SW 6.6mph /  10.6km/h 13mph /  20.9km/h 87% 0.00in /  0mm 0 W/m2
04:04 65.8 °F /  18.8 °C 61.9 °F /  16.6 °C 29.91in /  1012.8hPa SSW 6.8mph /  10.9km/h 12mph /  19.3km/h 87% 0.00in /  0mm 0 W/m2
04:09 65.8 °F /  18.8 °C 61.9 °F /  16.6 °C 29.91in /  1012.8hPa SW 5.2mph /  8.4km/h 12mph /  19.3km/h 87% 0.00in /  0mm 0 W/m2
04:14 65.8 °F /  18.8 °C 61.9 °F /  16.6 °C 29.91in /  1012.8hPa SW 6.7mph /  10.8km/h 14mph /  22.5km/h 87% 0.00in /  0mm 0 W/m2
04:19 65.8 °F /  18.8 °C 62 °F /  16.7 °C 29.91in /  1012.8hPa SW 5.8mph /  9.3km/h 14mph /  22.5km/h 87.2% 0.00in /  0mm 0 W/m2
04:24 65.7 °F /  18.7 °C 62.1 °F /  16.7 °C 29.91in /  1012.8hPa SW 4.5mph /  7.2km/h 10mph /  16.1km/h 88% 0.00in /  0mm 0 W/m2
04:29 65.7 °F /  18.7 °C 62.1 °F /  16.7 °C 29.91in /  1012.8hPa SW 6.4mph /  10.3km/h 11mph /  17.7km/h 88% 0.00in /  0mm 0 W/m2
04:34 65.5 °F /  18.6 °C 61.9 °F /  16.6 °C 29.91in /  1012.8hPa SW 6.2mph /  10km/h 11mph /  17.7km/h 88% 0.00in /  0mm 0 W/m2
04:39 65.5 °F /  18.6 °C 61.9 °F /  16.6 °C 29.91in /  1012.8hPa SW 7.4mph /  11.9km/h 12mph /  19.3km/h 88% 0.00in /  0mm 0 W/m2
04:44 65.4 °F /  18.6 °C 61.8 °F /  16.6 °C 29.91in /  1012.8hPa SW 4.8mph /  7.7km/h 12mph /  19.3km/h 88% 0.00in /  0mm 0 W/m2
04:49 65.3 °F /  18.5 °C 61.8 °F /  16.6 °C 29.91in /  1012.8hPa SW 7.2mph /  11.6km/h 12mph /  19.3km/h 88.2% 0.00in /  0mm 0 W/m2
04:54 65.3 °F /  18.5 °C 62.1 °F /  16.7 °C 29.91in /  1012.8hPa SW 5.8mph /  9.3km/h 12mph /  19.3km/h 89% 0.00in /  0mm 0 W/m2
04:59 65.3 °F /  18.5 °C 62.1 °F /  16.7 °C 29.91in /  1012.8hPa SW 6.8mph /  10.9km/h 12mph /  19.3km/h 89% 0.00in /  0mm 0 W/m2
05:04 65.3 °F /  18.5 °C 62.1 °F /  16.7 °C 29.91in /  1012.8hPa SW 4.5mph /  7.2km/h 11mph /  17.7km/h 89% 0.00in /  0mm 0 W/m2
05:09 65.3 °F /  18.5 °C 62.1 °F /  16.7 °C 29.91in /  1012.8hPa SW 4.7mph /  7.6km/h 10mph /  16.1km/h 89% 0.00in /  0mm 0 W/m2
05:14 65.3 °F /  18.5 °C 62.1 °F /  16.7 °C 29.91in /  1012.8hPa SSW 3.6mph /  5.8km/h 10mph /  16.1km/h 89% 0.00in /  0mm 0 W/m2
05:19 65.3 °F /  18.5 °C 62.1 °F /  16.7 °C 29.91in /  1012.8hPa SW 4.4mph /  7.1km/h 8mph /  12.9km/h 89% 0.00in /  0mm 0 W/m2
05:24 65.3 °F /  18.5 °C 62.1 °F /  16.7 °C 29.91in /  1012.8hPa WSW 3.4mph /  5.5km/h 8mph /  12.9km/h 89% 0.00in /  0mm 0 W/m2
05:29 65.3 °F /  18.5 °C 62.1 °F /  16.7 °C 29.91in /  1012.8hPa SW 6.8mph /  10.9km/h 12mph /  19.3km/h 89% 0.00in /  0mm 0 W/m2
05:34 65.3 °F /  18.5 °C 62.1 °F /  16.7 °C 29.91in /  1012.8hPa SW 5.7mph /  9.2km/h 12mph /  19.3km/h 89% 0.00in /  0mm 0 W/m2
05:39 65.3 °F /  18.5 °C 62.1 °F /  16.7 °C 29.91in /  1012.8hPa SSW 3.5mph /  5.6km/h 9mph /  14.5km/h 89.4% 0.00in /  0mm 5 W/m2
05:44 65.3 °F /  18.5 °C 62.2 °F /  16.8 °C 29.91in /  1012.8hPa SW 5.4mph /  8.7km/h 12mph /  19.3km/h 89.6% 0.00in /  0mm 7 W/m2
05:49 65.3 °F /  18.5 °C 62.2 °F /  16.8 °C 29.91in /  1012.8hPa SW 4.2mph /  6.8km/h 12mph /  19.3km/h 90% 0.00in /  0mm 11 W/m2
05:54 65.3 °F /  18.5 °C 62.2 °F /  16.8 °C 29.91in /  1012.8hPa SW 3.7mph /  6km/h 9mph /  14.5km/h 90% 0.00in /  0mm 18 W/m2
05:59 65.3 °F /  18.5 °C 62.2 °F /  16.8 °C 29.91in /  1012.8hPa SW 6.3mph /  10.1km/h 10mph /  16.1km/h 90% 0.00in /  0mm 19 W/m2
06:04 65.5 °F /  18.6 °C 62.4 °F /  16.9 °C 29.91in /  1012.8hPa SW 4.6mph /  7.4km/h 9mph /  14.5km/h 90% 0.00in /  0mm 12 W/m2
06:09 65.6 °F /  18.7 °C 62.3 °F /  16.8 °C 29.91in /  1012.8hPa SW 5.5mph /  8.9km/h 9mph /  14.5km/h 89.6% 0.00in /  0mm 11 W/m2
06:14 65.7 °F /  18.7 °C 62.3 °F /  16.8 °C 29.91in /  1012.8hPa SW 4.5mph /  7.2km/h 9mph /  14.5km/h 89% 0.00in /  0mm 12 W/m2
06:19 65.8 °F /  18.8 °C 62.6 °F /  17 °C 29.91in /  1012.8hPa SW 4.4mph /  7.1km/h 9mph /  14.5km/h 89.4% 0.00in /  0mm 12 W/m2
06:24 65.9 °F /  18.8 °C 62.5 °F /  16.9 °C 29.91in /  1012.8hPa SW 4.9mph /  7.9km/h 10mph /  16.1km/h 89% 0.00in /  0mm 18 W/m2
06:29 66 °F /  18.9 °C 62.6 °F /  17 °C 29.91in /  1012.8hPa SW 5.8mph /  9.3km/h 10mph /  16.1km/h 89% 0.00in /  0mm 23 W/m2
06:34 66 °F /  18.9 °C 62.6 °F /  17 °C 29.91in /  1012.8hPa SW 4.2mph /  6.8km/h 10mph /  16.1km/h 89% 0.00in /  0mm 25 W/m2
06:39 66 °F /  18.9 °C 62.6 °F /  17 °C 29.91in /  1012.8hPa SW 4.3mph /  6.9km/h 9mph /  14.5km/h 89% 0.00in /  0mm 25 W/m2
06:44 66 °F /  18.9 °C 62.6 °F /  17 °C 29.92in /  1013.1hPa SW 6.2mph /  10km/h 14mph /  22.5km/h 89% 0.00in /  0mm 35 W/m2
06:49 66.2 °F /  19 °C 62.8 °F /  17.1 °C 29.92in /  1013.1hPa SW 6.7mph /  10.8km/h 14mph /  22.5km/h 89% 0.00in /  0mm 35 W/m2
06:54 66.3 °F /  19.1 °C 62.9 °F /  17.2 °C 29.91in /  1012.8hPa SW 5.3mph /  8.5km/h 14mph /  22.5km/h 89% 0.00in /  0mm 33 W/m2
06:59 66.3 °F /  19.1 °C 62.9 °F /  17.2 °C 29.91in /  1012.8hPa SW 4.8mph /  7.7km/h 9mph /  14.5km/h 89% 0.00in /  0mm 46 W/m2
07:04 66.4 °F /  19.1 °C 63 °F /  17.2 °C 29.91in /  1012.8hPa SW 4.1mph /  6.6km/h 9mph /  14.5km/h 89% 0.00in /  0mm 69 W/m2
07:09 66.4 °F /  19.1 °C 63 °F /  17.2 °C 29.91in /  1012.8hPa SW 6.2mph /  10km/h 13mph /  20.9km/h 89% 0.00in /  0mm 123 W/m2
07:14 66.4 °F /  19.1 °C 63 °F /  17.2 °C 29.92in /  1013.1hPa SW 6.3mph /  10.1km/h 15mph /  24.1km/h 89% 0.00in /  0mm 127 W/m2
07:19 66.4 °F /  19.1 °C 63 °F /  17.2 °C 29.92in /  1013.1hPa SSW 8mph /  12.9km/h 15mph /  24.1km/h 89% 0.00in /  0mm 69 W/m2
07:24 66.4 °F /  19.1 °C 63 °F /  17.2 °C 29.92in /  1013.1hPa South 6mph /  9.7km/h 13mph /  20.9km/h 89% 0.00in /  0mm 116 W/m2
07:29 66.6 °F /  19.2 °C 63.1 °F /  17.3 °C 29.92in /  1013.1hPa SW 4.6mph /  7.4km/h 14mph /  22.5km/h 89% 0.00in /  0mm 141 W/m2
07:34 66.6 °F /  19.2 °C 63.2 °F /  17.3 °C 29.92in /  1013.1hPa SSW 6.1mph /  9.8km/h 13mph /  20.9km/h 89% 0.00in /  0mm 156 W/m2
07:39 66.6 °F /  19.2 °C 63.2 °F /  17.3 °C 29.92in /  1013.1hPa SSW 4.4mph /  7.1km/h 12mph /  19.3km/h 89% 0.00in /  0mm 142 W/m2
07:44 66.4 °F /  19.1 °C 63.3 °F /  17.4 °C 29.92in /  1013.1hPa SSW 7mph /  11.3km/h 13mph /  20.9km/h 89.8% 0.00in /  0mm 151 W/m2
07:49 66.2 °F /  19 °C 63.1 °F /  17.3 °C 29.92in /  1013.1hPa SW 7.8mph /  12.6km/h 15mph /  24.1km/h 90% 0.00in /  0mm 248 W/m2
07:54 66.4 °F /  19.1 °C 63.3 °F /  17.4 °C 29.92in /  1013.1hPa SSW 6.3mph /  10.1km/h 15mph /  24.1km/h 90% 0.00in /  0mm 251 W/m2
07:59 66.5 °F /  19.2 °C 63.7 °F /  17.6 °C 29.92in /  1013.1hPa SW 6.8mph /  10.9km/h 15mph /  24.1km/h 90.8% 0.00in /  0mm 339 W/m2
08:04 66.8 °F /  19.3 °C 64 °F /  17.8 °C 29.92in /  1013.1hPa SSW 5.7mph /  9.2km/h 13mph /  20.9km/h 90.8% 0.00in /  0mm 381 W/m2
08:09 66.9 °F /  19.4 °C 64 °F /  17.8 °C 29.92in /  1013.1hPa SW 6.6mph /  10.6km/h 13mph /  20.9km/h 90.4% 0.00in /  0mm 267 W/m2
08:14 66.7 °F /  19.3 °C 63.7 °F /  17.6 °C 29.92in /  1013.1hPa SW 7.5mph /  12.1km/h 13mph /  20.9km/h 90% 0.00in /  0mm 234 W/m2
08:19 66.7 °F /  19.3 °C 63.7 °F /  17.6 °C 29.92in /  1013.1hPa SSW 6.6mph /  10.6km/h 13mph /  20.9km/h 90% 0.00in /  0mm 132 W/m2
08:24 66.7 °F /  19.3 °C 63.7 °F /  17.6 °C 29.92in /  1013.1hPa SW 4.8mph /  7.7km/h 9mph /  14.5km/h 90% 0.00in /  0mm 125 W/m2
08:29 66.8 °F /  19.3 °C 63.8 °F /  17.7 °C 29.93in /  1013.4hPa SSW 5.7mph /  9.2km/h 11mph /  17.7km/h 90% 0.00in /  0mm 183 W/m2
08:34 66.7 °F /  19.3 °C 63.7 °F /  17.6 °C 29.93in /  1013.4hPa SW 6.8mph /  10.9km/h 14mph /  22.5km/h 90% 0.00in /  0mm 181 W/m2
08:39 66.8 °F /  19.3 °C 63.8 °F /  17.7 °C 29.93in /  1013.4hPa SSW 4.5mph /  7.2km/h 12mph /  19.3km/h 90% 0.00in /  0mm 155 W/m2
08:44 66.9 °F /  19.4 °C 63.9 °F /  17.7 °C 29.93in /  1013.4hPa SSW 5.6mph /  9km/h 8mph /  12.9km/h 90% 0.00in /  0mm 367 W/m2
08:49 67.3 °F /  19.6 °C 64.2 °F /  17.9 °C 29.93in /  1013.4hPa SW 6mph /  9.7km/h 13mph /  20.9km/h 90% 0.00in /  0mm 367 W/m2
08:54 67.7 °F /  19.8 °C 64.5 °F /  18.1 °C 29.93in /  1013.4hPa SW 6.4mph /  10.3km/h 11mph /  17.7km/h 89.6% 0.00in /  0mm 264 W/m2
08:59 67.7 °F /  19.8 °C 64.3 °F /  17.9 °C 29.93in /  1013.4hPa SW 4.3mph /  6.9km/h 9mph /  14.5km/h 89% 0.00in /  0mm 179 W/m2
09:04 67.6 °F /  19.8 °C 64.2 °F /  17.9 °C 29.93in /  1013.4hPa SSW 7.2mph /  11.6km/h 11mph /  17.7km/h 89% 0.00in /  0mm 169 W/m2
09:09 67.6 °F /  19.8 °C 64.2 °F /  17.9 °C 29.93in /  1013.4hPa SW 4.5mph /  7.2km/h 11mph /  17.7km/h 89% 0.00in /  0mm 148 W/m2
09:14 67.5 °F /  19.7 °C 64 °F /  17.8 °C 29.93in /  1013.4hPa SSW 6.1mph /  9.8km/h 11mph /  17.7km/h 89% 0.00in /  0mm 169 W/m2
09:18 67.5 °F /  19.7 °C 64 °F /  17.8 °C 29.93in /  1013.4hPa SSW 5.5mph /  8.9km/h 12mph /  19.3km/h 89% 0.00in /  0mm 236 W/m2
09:24 67.6 °F /  19.8 °C 64.1 °F /  17.8 °C 29.93in /  1013.4hPa SSW 5.6mph /  9km/h 15mph /  24.1km/h 89% 0.00in /  0mm 239 W/m2
09:29 67.7 °F /  19.8 °C 64.3 °F /  17.9 °C 29.93in /  1013.4hPa SSW 5.2mph /  8.4km/h 12mph /  19.3km/h 88.8% 0.00in /  0mm 230 W/m2
09:34 68.2 °F /  20.1 °C 64.6 °F /  18.1 °C 29.93in /  1013.4hPa SW 4.5mph /  7.2km/h 12mph /  19.3km/h 88.4% 0.00in /  0mm 394 W/m2
09:39 68.7 °F /  20.4 °C 64.9 °F /  18.3 °C 29.93in /  1013.4hPa SSW 3.5mph /  5.6km/h 11mph /  17.7km/h 88% 0.00in /  0mm 587 W/m2
09:44 69.4 °F /  20.8 °C 65.5 °F /  18.6 °C 29.93in /  1013.4hPa SSW 4.9mph /  7.9km/h 9mph /  14.5km/h 87.2% 0.00in /  0mm 598 W/m2
09:49 69.8 °F /  21 °C 65.6 °F /  18.7 °C 29.92in /  1013.1hPa SW 4.1mph /  6.6km/h 7mph /  11.3km/h 86.4% 0.00in /  0mm 508 W/m2
09:54 70 °F /  21.1 °C 65.4 °F /  18.6 °C 29.93in /  1013.4hPa SW 6.4mph /  10.3km/h 14mph /  22.5km/h 85.2% 0.00in /  0mm 508 W/m2
09:59 69.6 °F /  20.9 °C 64.8 °F /  18.2 °C 29.93in /  1013.4hPa SW 7.1mph /  11.4km/h 14mph /  22.5km/h 84.6% 0.00in /  0mm 348 W/m2
10:04 69.6 °F /  20.9 °C 64.6 °F /  18.1 °C 29.93in /  1013.4hPa SW 9.6mph /  15.4km/h 16mph /  25.7km/h 84% 0.00in /  0mm 330 W/m2
10:09 69.8 °F /  21 °C 64.7 °F /  18.2 °C 29.93in /  1013.4hPa SW 7.8mph /  12.6km/h 15mph /  24.1km/h 84% 0.00in /  0mm 369 W/m2
10:14 70 °F /  21.1 °C 64.9 °F /  18.3 °C 29.93in /  1013.4hPa WSW 5.6mph /  9km/h 15mph /  24.1km/h 83.8% 0.00in /  0mm 334 W/m2
10:19 70.3 °F /  21.3 °C 65 °F /  18.3 °C 29.93in /  1013.4hPa SSW 7mph /  11.3km/h 11mph /  17.7km/h 83.2% 0.00in /  0mm 274 W/m2
10:24 70.2 °F /  21.2 °C 64.8 °F /  18.2 °C 29.93in /  1013.4hPa SW 6.3mph /  10.1km/h 12mph /  19.3km/h 83% 0.00in /  0mm 225 W/m2
10:29 69.8 °F /  21 °C 64.7 °F /  18.2 °C 29.93in /  1013.4hPa SSW 6.6mph /  10.6km/h 11mph /  17.7km/h 83.6% 0.00in /  0mm 206 W/m2
10:34 69.5 °F /  20.8 °C 64.7 °F /  18.2 °C 29.93in /  1013.4hPa SW 7.4mph /  11.9km/h 14mph /  22.5km/h 84.5% 0.00in /  0mm 155 W/m2
10:39 68.5 °F /  20.3 °C 64 °F /  17.8 °C 29.93in /  1013.4hPa West 9.2mph /  14.8km/h 16mph /  25.7km/h 85.4% 0.00in /  0mm 90 W/m2
10:44 67 °F /  19.4 °C 63 °F /  17.2 °C 29.93in /  1013.4hPa West 7.6mph /  12.2km/h 14mph /  22.5km/h 86.8% 0.00in /  0mm 111 W/m2
10:49 66.1 °F /  18.9 °C 62.6 °F /  17 °C 29.93in /  1013.4hPa West 6.6mph /  10.6km/h 15mph /  24.1km/h 88.2% 0.00in /  0mm 165 W/m2
10:54 65.6 °F /  18.7 °C 62.2 °F /  16.8 °C 29.94in /  1013.8hPa West 6.6mph /  10.6km/h 15mph /  24.1km/h 89% 0.00in /  0mm 213 W/m2
10:59 65.5 °F /  18.6 °C 62.2 °F /  16.8 °C 29.94in /  1013.8hPa West 6mph /  9.7km/h 12mph /  19.3km/h 89% 0.00in /  0mm 339 W/m2
11:04 65.7 °F /  18.7 °C 62.6 °F /  17 °C 29.94in /  1013.8hPa West 5.4mph /  8.7km/h 11mph /  17.7km/h 90% 0.00in /  0mm 330 W/m2
11:09 65.9 °F /  18.8 °C 62.9 °F /  17.2 °C 29.94in /  1013.8hPa West 5.5mph /  8.9km/h 11mph /  17.7km/h 90% 0.00in /  0mm 320 W/m2
11:14 66.2 °F /  19 °C 63.1 °F /  17.3 °C 29.94in /  1013.8hPa WSW 5.2mph /  8.4km/h 8mph /  12.9km/h 90% 0.00in /  0mm 290 W/m2
11:19 66.1 °F /  18.9 °C 63.1 °F /  17.3 °C 29.94in /  1013.8hPa WNW 4.1mph /  6.6km/h 10mph /  16.1km/h 90% 0.00in /  0mm 278 W/m2
11:24 65.7 °F /  18.7 °C 62.6 °F /  17 °C 29.94in /  1013.8hPa WNW 8mph /  12.9km/h 14mph /  22.5km/h 89.8% 0.00in /  0mm 206 W/m2
11:29 65.2 °F /  18.4 °C 62 °F /  16.7 °C 29.94in /  1013.8hPa West 8.6mph /  13.8km/h 12mph /  19.3km/h 89% 0.00in /  0mm 174 W/m2
11:34 65.1 °F /  18.4 °C 61.9 °F /  16.6 °C 29.95in /  1014.1hPa West 6.8mph /  10.9km/h 13mph /  20.9km/h 89% 0.00in /  0mm 207 W/m2
11:39 65.3 °F /  18.5 °C 62.1 °F /  16.7 °C 29.95in /  1014.1hPa West 6.6mph /  10.6km/h 9mph /  14.5km/h 89% 0.00in /  0mm 253 W/m2
11:44 65.4 °F /  18.6 °C 62 °F /  16.7 °C 29.95in /  1014.1hPa West 6.7mph /  10.8km/h 10mph /  16.1km/h 88.6% 0.00in /  0mm 309 W/m2
11:49 65.5 °F /  18.6 °C 61.9 °F /  16.6 °C 29.95in /  1014.1hPa West 8.2mph /  13.2km/h 11mph /  17.7km/h 88% 0.00in /  0mm 381 W/m2
11:54 65.6 °F /  18.7 °C 62 °F /  16.7 °C 29.95in /  1014.1hPa WSW 5.3mph /  8.5km/h 10mph /  16.1km/h 88% 0.00in /  0mm 353 W/m2
11:59 65.7 °F /  18.7 °C 61.7 °F /  16.5 °C 29.95in /  1014.1hPa WSW 5.9mph /  9.5km/h 10mph /  16.1km/h 87% 0.00in /  0mm 404 W/m2
12:04 65.8 °F /  18.8 °C 61.9 °F /  16.6 °C 29.95in /  1014.1hPa West 4.6mph /  7.4km/h 9mph /  14.5km/h 87% 0.00in /  0mm 301 W/m2
12:09 65.9 °F /  18.8 °C 62 °F /  16.7 °C 29.95in /  1014.1hPa West 5.4mph /  8.7km/h 8mph /  12.9km/h 87% 0.00in /  0mm 258 W/m2
12:14 66.2 °F /  19 °C 62.2 °F /  16.8 °C 29.95in /  1014.1hPa WSW 5.2mph /  8.4km/h 8mph /  12.9km/h 87% 0.00in /  0mm 218 W/m2
12:19 66 °F /  18.9 °C 62.1 °F /  16.7 °C 29.95in /  1014.1hPa West 5.4mph /  8.7km/h 9mph /  14.5km/h 87% 0.00in /  0mm 171 W/m2
12:24 65.9 °F /  18.8 °C 61.9 °F /  16.6 °C 29.95in /  1014.1hPa WSW 4.4mph /  7.1km/h 9mph /  14.5km/h 87% 0.00in /  0mm 237 W/m2
12:29 65.5 °F /  18.6 °C 61.8 °F /  16.6 °C 29.95in /  1014.1hPa West 6.2mph /  10km/h 12mph /  19.3km/h 87.6% 0.00in /  0mm 283 W/m2
12:34 65.5 °F /  18.6 °C 62 °F /  16.7 °C 29.95in /  1014.1hPa West 2.8mph /  4.5km/h 9mph /  14.5km/h 88.2% 0.00in /  0mm 288 W/m2
12:39 65.5 °F /  18.6 °C 62.2 °F /  16.8 °C 29.95in /  1014.1hPa West 3.9mph /  6.3km/h 6mph /  9.7km/h 89% 0.00in /  0mm 313 W/m2
12:44 65.6 °F /  18.7 °C 62.2 °F /  16.8 °C 29.95in /  1014.1hPa WSW 5.8mph /  9.3km/h 9mph /  14.5km/h 89% 0.00in /  0mm 236 W/m2
12:49 65.5 °F /  18.6 °C 62.2 °F /  16.8 °C 29.95in /  1014.1hPa West 3.6mph /  5.8km/h 7mph /  11.3km/h 89% 0.00in /  0mm 195 W/m2
12:54 65.7 °F /  18.7 °C 62.1 °F /  16.7 °C 29.95in /  1014.1hPa West 3.5mph /  5.6km/h 6mph /  9.7km/h 88.4% 0.00in /  0mm 192 W/m2
12:59 65.7 °F /  18.7 °C 62.1 °F /  16.7 °C 29.95in /  1014.1hPa West 6.3mph /  10.1km/h 8mph /  12.9km/h 88% 0.00in /  0mm 199 W/m2
13:04 65.7 °F /  18.7 °C 61.8 °F /  16.6 °C 29.95in /  1014.1hPa West 5.5mph /  8.9km/h 10mph /  16.1km/h 87.2% 0.00in /  0mm 207 W/m2
13:09 66 °F /  18.9 °C 61.8 °F /  16.6 °C 29.95in /  1014.1hPa WNW 6.8mph /  10.9km/h 11mph /  17.7km/h 86.4% 0.00in /  0mm 234 W/m2
13:14 66.1 °F /  18.9 °C 61.5 °F /  16.4 °C 29.96in /  1014.4hPa West 5.7mph /  9.2km/h 11mph /  17.7km/h 85.2% 0.00in /  0mm 292 W/m2
13:19 66.4 °F /  19.1 °C 61.2 °F /  16.2 °C 29.96in /  1014.4hPa WSW 5.7mph /  9.2km/h 12mph /  19.3km/h 83.8% 0.00in /  0mm 281 W/m2
13:24 66.5 °F /  19.2 °C 61.1 °F /  16.2 °C 29.96in /  1014.4hPa West 5.2mph /  8.4km/h 10mph /  16.1km/h 83% 0.00in /  0mm 318 W/m2
13:29 66.7 °F /  19.3 °C 61.1 °F /  16.2 °C 29.96in /  1014.4hPa West 6.5mph /  10.5km/h 11mph /  17.7km/h 82.2% 0.00in /  0mm 339 W/m2
13:34 66.9 °F /  19.4 °C 61 °F /  16.1 °C 29.96in /  1014.4hPa West 6mph /  9.7km/h 10mph /  16.1km/h 81% 0.00in /  0mm 376 W/m2
13:39 67.5 °F /  19.7 °C 61.1 °F /  16.2 °C 29.96in /  1014.4hPa West 5.8mph /  9.3km/h 12mph /  19.3km/h 80% 0.00in /  0mm 390 W/m2
13:44 67.5 °F /  19.7 °C 60.8 °F /  16 °C 29.96in /  1014.4hPa West 5mph /  8km/h 9mph /  14.5km/h 79% 0.00in /  0mm 613 W/m2
13:49 67.6 °F /  19.8 °C 60.5 °F /  15.8 °C 29.96in /  1014.4hPa West 4.7mph /  7.6km/h 11mph /  17.7km/h 78% 0.00in /  0mm 626 W/m2
13:54 68.4 °F /  20.2 °C 61 °F /  16.1 °C 29.96in /  1014.4hPa WSW 3.6mph /  5.8km/h 8mph /  12.9km/h 77.4% 0.00in /  0mm 452 W/m2
13:59 68.5 °F /  20.3 °C 60.6 °F /  15.9 °C 29.96in /  1014.4hPa WSW 6.2mph /  10km/h 10mph /  16.1km/h 75.8% 0.00in /  0mm 334 W/m2
14:04 68.4 °F /  20.2 °C 60.1 °F /  15.6 °C 29.95in /  1014.1hPa West 5mph /  8km/h 11mph /  17.7km/h 75% 0.00in /  0mm 446 W/m2
14:09 68.5 °F /  20.3 °C 60.4 °F /  15.8 °C 29.95in /  1014.1hPa West 8.2mph /  13.2km/h 15mph /  24.1km/h 75.4% 0.00in /  0mm 272 W/m2
14:14 68.4 °F /  20.2 °C 60.1 °F /  15.6 °C 29.95in /  1014.1hPa West 7.4mph /  11.9km/h 15mph /  24.1km/h 75% 0.00in /  0mm 297 W/m2
14:19 67.7 °F /  19.8 °C 60 °F /  15.6 °C 29.96in /  1014.4hPa WSW 5.2mph /  8.4km/h 14mph /  22.5km/h 76.4% 0.00in /  0mm 390 W/m2
14:24 67.6 °F /  19.8 °C 60.1 °F /  15.6 °C 29.95in /  1014.1hPa WSW 5.4mph /  8.7km/h 9mph /  14.5km/h 76.8% 0.00in /  0mm 392 W/m2
14:29 68.1 °F /  20.1 °C 60.3 °F /  15.7 °C 29.95in /  1014.1hPa WSW 8mph /  12.9km/h 14mph /  22.5km/h 76.3% 0.00in /  0mm 396 W/m2
14:34 69 °F /  20.6 °C 60.4 °F /  15.8 °C 29.95in /  1014.1hPa West 4.8mph /  7.7km/h 14mph /  22.5km/h 74.2% 0.00in /  0mm 513 W/m2
14:39 69.4 °F /  20.8 °C 60.2 °F /  15.7 °C 29.95in /  1014.1hPa WSW 7.3mph /  11.7km/h 12mph /  19.3km/h 72.2% 0.00in /  0mm 555 W/m2
14:44 69.9 °F /  21.1 °C 60.1 °F /  15.6 °C 29.95in /  1014.1hPa West 4.7mph /  7.6km/h 11mph /  17.7km/h 71.2% 0.00in /  0mm 617 W/m2
14:49 70.4 °F /  21.3 °C 60.5 °F /  15.8 °C 29.95in /  1014.1hPa West 5.9mph /  9.5km/h 12mph /  19.3km/h 71% 0.00in /  0mm 613 W/m2
14:54 70.9 °F /  21.6 °C 60.6 °F /  15.9 °C 29.95in /  1014.1hPa West 8mph /  12.9km/h 14mph /  22.5km/h 70% 0.00in /  0mm 613 W/m2
14:59 70.5 °F /  21.4 °C 60.1 °F /  15.6 °C 29.95in /  1014.1hPa West 8.2mph /  13.2km/h 13mph /  20.9km/h 69.6% 0.00in /  0mm 383 W/m2
15:04 70.7 °F /  21.5 °C 60.4 °F /  15.8 °C 29.95in /  1014.1hPa WSW 5.2mph /  8.4km/h 11mph /  17.7km/h 69.8% 0.00in /  0mm 376 W/m2
15:09 70.7 °F /  21.5 °C 60.2 °F /  15.7 °C 29.95in /  1014.1hPa WSW 6.3mph /  10.1km/h 11mph /  17.7km/h 69.2% 0.00in /  0mm 469 W/m2
15:14 71.1 °F /  21.7 °C 60.7 °F /  15.9 °C 29.95in /  1014.1hPa West 4.1mph /  6.6km/h 10mph /  16.1km/h 69.8% 0.00in /  0mm 485 W/m2
15:19 71.4 °F /  21.9 °C 60.8 °F /  16 °C 29.95in /  1014.1hPa NW 6.6mph /  10.6km/h 9mph /  14.5km/h 69.2% 0.00in /  0mm 738 W/m2
15:24 71.6 °F /  22 °C 60.5 °F /  15.8 °C 29.95in /  1014.1hPa WNW 6.8mph /  10.9km/h 13mph /  20.9km/h 68.2% 0.00in /  0mm 404 W/m2
15:29 71.1 °F /  21.7 °C 59.9 °F /  15.5 °C 29.95in /  1014.1hPa NW 7mph /  11.3km/h 12mph /  19.3km/h 68% 0.00in /  0mm 476 W/m2
15:34 71.1 °F /  21.7 °C 59.9 °F /  15.5 °C 29.94in /  1013.8hPa West 5.2mph /  8.4km/h 13mph /  20.9km/h 68% 0.00in /  0mm 323 W/m2
15:39 71.1 °F /  21.7 °C 59.9 °F /  15.5 °C 29.94in /  1013.8hPa West 5.5mph /  8.9km/h 11mph /  17.7km/h 68% 0.00in /  0mm 455 W/m2
15:44 71.6 °F /  22 °C 61.2 °F /  16.2 °C 29.94in /  1013.8hPa West 5mph /  8km/h 11mph /  17.7km/h 69.8% 0.00in /  0mm 800 W/m2
15:49 72.3 °F /  22.4 °C 62 °F /  16.7 °C 29.94in /  1013.8hPa WNW 5.8mph /  9.3km/h 13mph /  20.9km/h 70.2% 0.00in /  0mm 758 W/m2
15:54 72.4 °F /  22.4 °C 62.2 °F /  16.8 °C 29.94in /  1013.8hPa WNW 6.7mph /  10.8km/h 14mph /  22.5km/h 70.2% 0.00in /  0mm 745 W/m2
15:59 72.1 °F /  22.3 °C 62.2 °F /  16.8 °C 29.94in /  1013.8hPa WNW 8.5mph /  13.7km/h 16mph /  25.7km/h 71% 0.00in /  0mm 710 W/m2
16:04 72.5 °F /  22.5 °C 62.4 °F /  16.9 °C 29.94in /  1013.8hPa WNW 7.4mph /  11.9km/h 16mph /  25.7km/h 70.6% 0.00in /  0mm 708 W/m2
16:09 73 °F /  22.8 °C 62.2 °F /  16.8 °C 29.94in /  1013.8hPa West 6.6mph /  10.6km/h 14mph /  22.5km/h 69.2% 0.00in /  0mm 671 W/m2
16:14 73.2 °F /  22.9 °C 62.4 °F /  16.9 °C 29.93in /  1013.4hPa WSW 8.9mph /  14.3km/h 15mph /  24.1km/h 69% 0.00in /  0mm 650 W/m2
16:19 73.4 °F /  23 °C 62.1 °F /  16.7 °C 29.93in /  1013.4hPa WSW 6.1mph /  9.8km/h 13mph /  20.9km/h 67.8% 0.00in /  0mm 693 W/m2
16:24 73.1 °F /  22.8 °C 61.9 °F /  16.6 °C 29.93in /  1013.4hPa WSW 6.8mph /  10.9km/h 14mph /  22.5km/h 67.8% 0.00in /  0mm 721 W/m2
16:29 73.6 °F /  23.1 °C 62.4 °F /  16.9 °C 29.93in /  1013.4hPa WSW 6.6mph /  10.6km/h 13mph /  20.9km/h 68% 0.00in /  0mm 654 W/m2
16:34 73.7 °F /  23.2 °C 62.1 °F /  16.7 °C 29.93in /  1013.4hPa West 5.2mph /  8.4km/h 13mph /  20.9km/h 67.2% 0.00in /  0mm 631 W/m2
16:39 73.6 °F /  23.1 °C 61.6 °F /  16.4 °C 29.93in /  1013.4hPa West 5.4mph /  8.7km/h 13mph /  20.9km/h 66.4% 0.00in /  0mm 642 W/m2
16:44 73.6 °F /  23.1 °C 61.7 °F /  16.5 °C 29.93in /  1013.4hPa West 7.2mph /  11.6km/h 13mph /  20.9km/h 66.6% 0.00in /  0mm 629 W/m2
16:49 73.3 °F /  22.9 °C 61.4 °F /  16.3 °C 29.93in /  1013.4hPa West 7.4mph /  11.9km/h 13mph /  20.9km/h 66.4% 0.00in /  0mm 654 W/m2
16:54 73.2 °F /  22.9 °C 61.5 °F /  16.4 °C 29.93in /  1013.4hPa West 3.9mph /  6.3km/h 13mph /  20.9km/h 66.8% 0.00in /  0mm 680 W/m2
16:59 73.3 °F /  22.9 °C 61.3 °F /  16.3 °C 29.93in /  1013.4hPa West 7.7mph /  12.4km/h 13mph /  20.9km/h 66% 0.00in /  0mm 508 W/m2
17:04 72.4 °F /  22.4 °C 61.1 °F /  16.2 °C 29.93in /  1013.4hPa NW 8.3mph /  13.4km/h 13mph /  20.9km/h 67.4% 0.00in /  0mm 213 W/m2
17:09 72 °F /  22.2 °C 61 °F /  16.1 °C 29.93in /  1013.4hPa NW 7.8mph /  12.6km/h 17mph /  27.4km/h 68.4% 0.00in /  0mm 352 W/m2
17:14 71.9 °F /  22.2 °C 61.1 °F /  16.2 °C 29.93in /  1013.4hPa WNW 7.8mph /  12.6km/h 17mph /  27.4km/h 69% 0.00in /  0mm 197 W/m2
17:19 71.7 °F /  22.1 °C 60.9 °F /  16.1 °C 29.93in /  1013.4hPa WNW 5.4mph /  8.7km/h 12mph /  19.3km/h 69% 0.00in /  0mm 308 W/m2
17:24 72 °F /  22.2 °C 61 °F /  16.1 °C 29.93in /  1013.4hPa WNW 10.8mph /  17.4km/h 17mph /  27.4km/h 68.2% 0.00in /  0mm 529 W/m2
17:29 72 °F /  22.2 °C 60.6 °F /  15.9 °C 29.93in /  1013.4hPa West 8.6mph /  13.8km/h 14mph /  22.5km/h 67.4% 0.00in /  0mm 512 W/m2
17:34 72.1 °F /  22.3 °C 60.6 °F /  15.9 °C 29.93in /  1013.4hPa WNW 7.6mph /  12.2km/h 15mph /  24.1km/h 67.2% 0.00in /  0mm 459 W/m2
17:39 72.3 °F /  22.4 °C 60.8 °F /  16 °C 29.93in /  1013.4hPa WNW 6.3mph /  10.1km/h 15mph /  24.1km/h 67% 0.00in /  0mm 446 W/m2
17:44 72.8 °F /  22.7 °C 61.2 °F /  16.2 °C 29.93in /  1013.4hPa WNW 5.6mph /  9km/h 12mph /  19.3km/h 67% 0.00in /  0mm 427 W/m2
17:49 72.4 °F /  22.4 °C 61.1 °F /  16.2 °C 29.93in /  1013.4hPa WNW 6.6mph /  10.6km/h 12mph /  19.3km/h 67.6% 0.00in /  0mm 406 W/m2
17:54 72.2 °F /  22.3 °C 61.1 °F /  16.2 °C 29.93in /  1013.4hPa West 4.2mph /  6.8km/h 11mph /  17.7km/h 68% 0.00in /  0mm 448 W/m2
17:59 72.5 °F /  22.5 °C 61.3 °F /  16.3 °C 29.93in /  1013.4hPa West 9.2mph /  14.8km/h 15mph /  24.1km/h 67.8% 0.00in /  0mm 348 W/m2
18:04 72.1 °F /  22.3 °C 61 °F /  16.1 °C 29.93in /  1013.4hPa West 6.8mph /  10.9km/h 15mph /  24.1km/h 68% 0.00in /  0mm 478 W/m2
18:09 71.9 °F /  22.2 °C 60.7 °F /  15.9 °C 29.93in /  1013.4hPa West 7.9mph /  12.7km/h 13mph /  20.9km/h 68% 0.00in /  0mm 462 W/m2
18:14 71.8 °F /  22.1 °C 60.7 °F /  15.9 °C 29.93in /  1013.4hPa West 7.1mph /  11.4km/h 12mph /  19.3km/h 68.4% 0.00in /  0mm 220 W/m2
18:19 71.4 °F /  21.9 °C 61 °F /  16.1 °C 29.93in /  1013.4hPa West 7.8mph /  12.6km/h 13mph /  20.9km/h 69.4% 0.00in /  0mm 197 W/m2
18:24 71.2 °F /  21.8 °C 61.2 °F /  16.2 °C 29.93in /  1013.4hPa WNW 4.7mph /  7.6km/h 13mph /  20.9km/h 70.6% 0.00in /  0mm 334 W/m2
18:29 71 °F /  21.7 °C 61.1 °F /  16.2 °C 29.93in /  1013.4hPa WNW 7.2mph /  11.6km/h 13mph /  20.9km/h 71% 0.00in /  0mm 262 W/m2
18:34 70.8 °F /  21.6 °C 61.1 °F /  16.2 °C 29.94in /  1013.8hPa WNW 8.6mph /  13.8km/h 14mph /  22.5km/h 71.6% 0.00in /  0mm 396 W/m2
18:39 70.4 °F /  21.3 °C 60.9 °F /  16.1 °C 29.94in /  1013.8hPa WNW 6.7mph /  10.8km/h 13mph /  20.9km/h 72% 0.00in /  0mm 290 W/m2
18:44 70.3 °F /  21.3 °C 60.8 °F /  16 °C 29.94in /  1013.8hPa NW 6.8mph /  10.9km/h 12mph /  19.3km/h 72% 0.00in /  0mm 267 W/m2
18:49 70.2 °F /  21.2 °C 60.6 °F /  15.9 °C 29.94in /  1013.8hPa WNW 5.1mph /  8.2km/h 10mph /  16.1km/h 72% 0.00in /  0mm 98 W/m2
18:54 69.8 °F /  21 °C 60.4 °F /  15.8 °C 29.94in /  1013.8hPa WNW 5.7mph /  9.2km/h 11mph /  17.7km/h 72% 0.00in /  0mm 144 W/m2
18:59 70 °F /  21.1 °C 60.5 °F /  15.8 °C 29.94in /  1013.8hPa WNW 4.9mph /  7.9km/h 10mph /  16.1km/h 72% 0.00in /  0mm 260 W/m2
19:04 70.3 °F /  21.3 °C 60.3 °F /  15.7 °C 29.93in /  1013.4hPa WNW 4.8mph /  7.7km/h 11mph /  17.7km/h 70.8% 0.00in /  0mm 234 W/m2
19:09 70.3 °F /  21.3 °C 60.1 °F /  15.6 °C 29.94in /  1013.8hPa WNW 5.3mph /  8.5km/h 11mph /  17.7km/h 70% 0.00in /  0mm 206 W/m2
19:14 70.2 °F /  21.2 °C 59.9 °F /  15.5 °C 29.93in /  1013.4hPa WNW 6.2mph /  10km/h 9mph /  14.5km/h 70% 0.00in /  0mm 188 W/m2
19:19 70.2 °F /  21.2 °C 59.8 °F /  15.4 °C 29.94in /  1013.8hPa West 6.7mph /  10.8km/h 13mph /  20.9km/h 69.8% 0.00in /  0mm 174 W/m2
19:24 69.8 °F /  21 °C 59.5 °F /  15.3 °C 29.94in /  1013.8hPa WNW 7.6mph /  12.2km/h 13mph /  20.9km/h 70% 0.00in /  0mm 162 W/m2
19:29 69.8 °F /  21 °C 59.6 °F /  15.3 °C 29.94in /  1013.8hPa WNW 6mph /  9.7km/h 11mph /  17.7km/h 70% 0.00in /  0mm 155 W/m2
19:34 69.3 °F /  20.7 °C 59.3 °F /  15.2 °C 29.94in /  1013.8hPa WNW 6.8mph /  10.9km/h 12mph /  19.3km/h 70.4% 0.00in /  0mm 155 W/m2
19:39 68.7 °F /  20.4 °C 59.1 °F /  15.1 °C 29.94in /  1013.8hPa West 5.8mph /  9.3km/h 14mph /  22.5km/h 71.2% 0.00in /  0mm 127 W/m2
19:44 68.3 °F /  20.2 °C 59 °F /  15 °C 29.94in /  1013.8hPa WNW 7.1mph /  11.4km/h 11mph /  17.7km/h 72.2% 0.00in /  0mm 63 W/m2
19:49 67.9 °F /  19.9 °C 58.9 °F /  14.9 °C 29.94in /  1013.8hPa WNW 3.7mph /  6km/h 10mph /  16.1km/h 73% 0.00in /  0mm 56 W/m2
19:54 67.7 °F /  19.8 °C 59.1 °F /  15.1 °C 29.94in /  1013.8hPa WNW 5.8mph /  9.3km/h 9mph /  14.5km/h 74% 0.00in /  0mm 51 W/m2
19:59 67.6 °F /  19.8 °C 59.2 °F /  15.1 °C 29.94in /  1013.8hPa WNW 4.5mph /  7.2km/h 9mph /  14.5km/h 74.6% 0.00in /  0mm 47 W/m2
20:04 67.5 °F /  19.7 °C 59.2 °F /  15.1 °C 29.94in /  1013.8hPa WNW 6.3mph /  10.1km/h 13mph /  20.9km/h 75% 0.00in /  0mm 39 W/m2
20:09 67.3 °F /  19.6 °C 59 °F /  15 °C 29.94in /  1013.8hPa WNW 3.9mph /  6.3km/h 12mph /  19.3km/h 75% 0.00in /  0mm 26 W/m2
20:14 67 °F /  19.4 °C 59 °F /  15 °C 29.95in /  1014.1hPa WNW 5.3mph /  8.5km/h 10mph /  16.1km/h 75.4% 0.00in /  0mm 19 W/m2
20:19 66.7 °F /  19.3 °C 59 °F /  15 °C 29.95in /  1014.1hPa West 4.8mph /  7.7km/h 13mph /  20.9km/h 76% 0.00in /  0mm 14 W/m2
20:24 66.6 °F /  19.2 °C 58.8 °F /  14.9 °C 29.95in /  1014.1hPa WNW 6mph /  9.7km/h 10mph /  16.1km/h 76% 0.00in /  0mm 12 W/m2
20:29 66.4 °F /  19.1 °C 58.6 °F /  14.8 °C 29.95in /  1014.1hPa West 3.2mph /  5.1km/h 10mph /  16.1km/h 76% 0.00in /  0mm 12 W/m2
20:34 66.3 °F /  19.1 °C 58.6 °F /  14.8 °C 29.95in /  1014.1hPa West 4.8mph /  7.7km/h 9mph /  14.5km/h 76% 0.00in /  0mm 9 W/m2
20:39 66.1 °F /  18.9 °C 58.7 °F /  14.8 °C 29.95in /  1014.1hPa West 3mph /  4.8km/h 8mph /  12.9km/h 77% 0.00in /  0mm 5 W/m2
20:44 66.1 °F /  18.9 °C 58.7 °F /  14.8 °C 29.95in /  1014.1hPa West 3.5mph /  5.6km/h 6mph /  9.7km/h 77% 0.00in /  0mm 5 W/m2
20:49 66 °F /  18.9 °C 58.6 °F /  14.8 °C 29.95in /  1014.1hPa West 4mph /  6.4km/h 8mph /  12.9km/h 77% 0.00in /  0mm 0 W/m2
20:54 66 °F /  18.9 °C 58.6 °F /  14.8 °C 29.95in /  1014.1hPa West 1.9mph /  3.1km/h 7mph /  11.3km/h 77% 0.00in /  0mm 0 W/m2
20:59 65.9 °F /  18.8 °C 58.6 °F /  14.8 °C 29.95in /  1014.1hPa West 4.6mph /  7.4km/h 8mph /  12.9km/h 77% 0.00in /  0mm 0 W/m2
21:04 65.8 °F /  18.8 °C 58.5 °F /  14.7 °C 29.96in /  1014.4hPa West 3.7mph /  6km/h 6mph /  9.7km/h 77% 0.00in /  0mm 0 W/m2
21:09 65.8 °F /  18.8 °C 58.5 °F /  14.7 °C 29.95in /  1014.1hPa West 3.6mph /  5.8km/h 5mph /  8km/h 77% 0.00in /  0mm 0 W/m2
21:14 65.7 °F /  18.7 °C 58.3 °F /  14.6 °C 29.96in /  1014.4hPa West 3.2mph /  5.1km/h 6mph /  9.7km/h 77% 0.00in /  0mm 0 W/m2
21:19 65.7 °F /  18.7 °C 58.3 °F /  14.6 °C 29.96in /  1014.4hPa West 2.5mph /  4km/h 6mph /  9.7km/h 77% 0.00in /  0mm 0 W/m2
21:24 65.6 °F /  18.7 °C 58.2 °F /  14.6 °C 29.96in /  1014.4hPa West 3.2mph /  5.1km/h 5mph /  8km/h 77% 0.00in /  0mm 0 W/m2
21:29 65.5 °F /  18.6 °C 58.1 °F /  14.5 °C 29.96in /  1014.4hPa West 2.6mph /  4.2km/h 5mph /  8km/h 77% 0.00in /  0mm 0 W/m2
21:34 65.4 °F /  18.6 °C 58 °F /  14.4 °C 29.96in /  1014.4hPa West 3.3mph /  5.3km/h 6mph /  9.7km/h 77% 0.00in /  0mm 0 W/m2
21:39 65.1 °F /  18.4 °C 57.8 °F /  14.3 °C 29.96in /  1014.4hPa West 3.6mph /  5.8km/h 9mph /  14.5km/h 77.4% 0.00in /  0mm 0 W/m2
21:44 64.9 °F /  18.3 °C 57.8 °F /  14.3 °C 29.96in /  1014.4hPa WNW 4.1mph /  6.6km/h 7mph /  11.3km/h 77.8% 0.00in /  0mm 0 W/m2
21:49 64.7 °F /  18.2 °C 57.5 °F /  14.2 °C 29.96in /  1014.4hPa West 2.6mph /  4.2km/h 7mph /  11.3km/h 77.4% 0.00in /  0mm 0 W/m2
21:54 64.6 °F /  18.1 °C 57.6 °F /  14.2 °C 29.96in /  1014.4hPa West 3.8mph /  6.1km/h 7mph /  11.3km/h 78% 0.00in /  0mm 0 W/m2
21:59 64.3 °F /  17.9 °C 57.3 °F /  14.1 °C 29.96in /  1014.4hPa West 3mph /  4.8km/h 7mph /  11.3km/h 78% 0.00in /  0mm 0 W/m2
22:04 64 °F /  17.8 °C 57 °F /  13.9 °C 29.96in /  1014.4hPa WNW 3.3mph /  5.3km/h 6mph /  9.7km/h 78% 0.00in /  0mm 0 W/m2
22:09 63.9 °F /  17.7 °C 56.8 °F /  13.8 °C 29.96in /  1014.4hPa West 1mph /  1.6km/h 6mph /  9.7km/h 78% 0.00in /  0mm 0 W/m2
22:14 63.8 °F /  17.7 °C 56.7 °F /  13.7 °C 29.96in /  1014.4hPa West 3.7mph /  6km/h 6mph /  9.7km/h 78% 0.00in /  0mm 0 W/m2
22:19 63.4 °F /  17.4 °C 56.4 °F /  13.6 °C 29.96in /  1014.4hPa West 2.6mph /  4.2km/h 4mph /  6.4km/h 78% 0.00in /  0mm 0 W/m2
22:24 63.3 °F /  17.4 °C 56.3 °F /  13.5 °C 29.96in /  1014.4hPa West 2.5mph /  4km/h 7mph /  11.3km/h 78% 0.00in /  0mm 0 W/m2
22:29 63.1 °F /  17.3 °C 56.1 °F /  13.4 °C 29.96in /  1014.4hPa West 2.6mph /  4.2km/h 5mph /  8km/h 78% 0.00in /  0mm 0 W/m2
22:34 63.1 °F /  17.3 °C 56.1 °F /  13.4 °C 29.96in /  1014.4hPa West 2.8mph /  4.5km/h 5mph /  8km/h 78% 0.00in /  0mm 0 W/m2
22:39 63 °F /  17.2 °C 55.9 °F /  13.3 °C 29.96in /  1014.4hPa West 2.2mph /  3.5km/h 5mph /  8km/h 78% 0.00in /  0mm 0 W/m2
22:44 62.9 °F /  17.2 °C 55.8 °F /  13.2 °C 29.96in /  1014.4hPa West 2.5mph /  4km/h 5mph /  8km/h 78% 0.00in /  0mm 0 W/m2
22:49 62.8 °F /  17.1 °C 55.8 °F /  13.2 °C 29.96in /  1014.4hPa West 3mph /  4.8km/h 5mph /  8km/h 78% 0.00in /  0mm 0 W/m2
22:54 62.5 °F /  16.9 °C 55.8 °F /  13.2 °C 29.96in /  1014.4hPa West 4.1mph /  6.6km/h 6mph /  9.7km/h 78.8% 0.00in /  0mm 0 W/m2
22:59 62.2 °F /  16.8 °C 55.6 °F /  13.1 °C 29.96in /  1014.4hPa West 3mph /  4.8km/h 6mph /  9.7km/h 79% 0.00in /  0mm 0 W/m2
23:04 62.1 °F /  16.7 °C 55.8 °F /  13.2 °C 29.96in /  1014.4hPa West 2.4mph /  3.9km/h 5mph /  8km/h 80% 0.00in /  0mm 0 W/m2
23:09 61.9 °F /  16.6 °C 55.7 °F /  13.2 °C 29.96in /  1014.4hPa West 2.5mph /  4km/h 4mph /  6.4km/h 80.4% 0.00in /  0mm 0 W/m2
23:14 61.6 °F /  16.4 °C 55.7 °F /  13.2 °C 29.96in /  1014.4hPa West 2.4mph /  3.9km/h 4mph /  6.4km/h 81% 0.00in /  0mm 0 W/m2
23:19 61.5 °F /  16.4 °C 55.7 °F /  13.2 °C 29.96in /  1014.4hPa West 1.9mph /  3.1km/h 4mph /  6.4km/h 81.2% 0.00in /  0mm 0 W/m2
23:24 61.3 °F /  16.3 °C 55.8 °F /  13.2 °C 29.96in /  1014.4hPa West 2mph /  3.2km/h 4mph /  6.4km/h 82% 0.00in /  0mm 0 W/m2
23:29 61.3 °F /  16.3 °C 55.8 °F /  13.2 °C 29.96in /  1014.4hPa West 2mph /  3.2km/h 3mph /  4.8km/h 82% 0.00in /  0mm 0 W/m2
23:34 61.2 °F /  16.2 °C 55.6 °F /  13.1 °C 29.96in /  1014.4hPa West 3.1mph /  5km/h 5mph /  8km/h 82% 0.00in /  0mm 0 W/m2
23:39 61.2 °F /  16.2 °C 55.9 °F /  13.3 °C 29.96in /  1014.4hPa West 3.2mph /  5.1km/h 4mph /  6.4km/h 83% 0.00in /  0mm 0 W/m2
23:44 61.2 °F /  16.2 °C 55.9 °F /  13.3 °C 29.96in /  1014.4hPa West 3mph /  4.8km/h 4mph /  6.4km/h 83% 0.00in /  0mm 0 W/m2
23:49 61.2 °F /  16.2 °C 55.9 °F /  13.3 °C 29.96in /  1014.4hPa West 2.4mph /  3.9km/h 4mph /  6.4km/h 83% 0.00in /  0mm 0 W/m2
23:54 61.2 °F /  16.2 °C 55.9 °F /  13.3 °C 29.96in /  1014.4hPa West 2.8mph /  4.5km/h 5mph /  8km/h 83% 0.00in /  0mm 0 W/m2
23:59 61.3 °F /  16.3 °C 56.1 °F /  13.4 °C 29.96in /  1014.4hPa West 2.4mph /  3.9km/h 4mph /  6.4km/h 83% 0.00in /  0mm 0 W/m2
Bath Spa Weather
Compliments of Weather Underground - 2 mb